createdAt,value
2019-01-13T00:00:41.092Z,5.9
2019-01-13T00:05:43.436Z,7.3
2019-01-13T00:10:45.858Z,6.4
2019-01-13T00:15:48.025Z,6.9
2019-01-13T00:20:50.324Z,8.3
2019-01-13T00:25:52.678Z,6.3
2019-01-13T00:30:54.898Z,5.8
2019-01-13T00:35:57.167Z,5.8
2019-01-13T00:40:59.537Z,8.8
2019-01-13T00:46:02.847Z,5.3
2019-01-13T00:51:03.996Z,7
2019-01-13T00:56:06.406Z,7.1
2019-01-13T01:01:08.729Z,8.4
2019-01-13T01:06:10.929Z,7.5
2019-01-13T01:11:14.670Z,10.9
2019-01-13T01:16:16.632Z,7.5
2019-01-13T01:21:17.874Z,7.2
2019-01-13T01:26:21.205Z,7.5
2019-01-13T01:31:22.538Z,10.3
2019-01-13T01:36:24.736Z,10.8
2019-01-13T01:41:37.109Z,9.4
2019-01-13T01:46:29.245Z,6.3
2019-01-13T01:51:31.736Z,9.2
2019-01-13T01:56:33.887Z,9.5
2019-01-13T02:01:36.113Z,8.5
2019-01-13T02:06:38.590Z,6.6
2019-01-13T02:11:40.744Z,10.6
2019-01-13T02:16:42.998Z,9
2019-01-13T02:21:45.433Z,7
2019-01-13T02:26:47.687Z,9.6
2019-01-13T02:31:49.910Z,10.9
2019-01-13T02:36:52.205Z,9.5
2019-01-13T02:41:54.555Z,11.2
2019-01-13T02:46:56.894Z,9.5
2019-01-13T02:51:59.019Z,13.8
2019-01-13T02:57:01.313Z,11.9
2019-01-13T03:02:05.118Z,12.5
2019-01-13T03:07:07.015Z,8.8
2019-01-13T03:12:08.422Z,9
2019-01-13T03:17:10.598Z,12.1
2019-01-13T03:22:12.879Z,11.4
2019-01-13T03:27:15.122Z,8.4
2019-01-13T03:32:17.472Z,10.5
2019-01-13T03:37:19.788Z,12.1
2019-01-13T03:42:21.993Z,8.3
2019-01-13T03:47:24.341Z,11.2
2019-01-13T03:52:26.615Z,10.6
2019-01-13T03:57:28.970Z,11
2019-01-13T04:02:31.157Z,8.7
2019-01-13T04:07:33.468Z,10
2019-01-13T04:12:35.791Z,8.6
2019-01-13T04:17:38.100Z,6.6
2019-01-13T04:22:40.478Z,8.2
2019-01-13T04:27:42.733Z,7.2
2019-01-13T04:32:46.019Z,10
2019-01-13T04:37:47.417Z,10.3
2019-01-13T04:42:49.690Z,14
2019-01-13T04:47:51.856Z,14.7
2019-01-13T04:57:56.504Z,13.8
2019-01-13T05:03:00.687Z,13.4
2019-01-13T05:08:01.062Z,10.9
2019-01-13T05:13:03.317Z,12
2019-01-13T05:18:05.629Z,9.9
2019-01-13T05:23:07.953Z,6.2
2019-01-13T05:28:10.196Z,10.3
2019-01-13T05:33:12.505Z,8.1
2019-01-13T05:38:14.830Z,7.6
2019-01-13T05:43:17.084Z,7.2
2019-01-13T05:48:19.353Z,4.7
2019-01-13T05:53:21.774Z,6
2019-01-13T05:58:23.910Z,3.8
2019-01-13T06:03:26.351Z,3.1
2019-01-13T06:08:28.622Z,3.8
2019-01-13T06:13:30.802Z,4.8
2019-01-13T06:18:33.292Z,3
2019-01-13T06:23:35.372Z,4.2
2019-01-13T06:28:37.740Z,4.7
2019-01-13T06:33:40.067Z,4.4
2019-01-13T06:38:42.279Z,3.5
2019-01-13T06:43:44.801Z,2.7
2019-01-13T06:48:46.908Z,4.4
2019-01-13T06:53:49.261Z,2.8
2019-01-13T06:58:51.532Z,2
2019-01-13T07:03:53.822Z,2.6
2019-01-13T07:08:56.066Z,1.8
2019-01-13T07:13:58.396Z,3.8
2019-01-13T07:19:00.860Z,4.3
2019-01-13T07:24:03.040Z,3.4
2019-01-13T07:29:05.276Z,3.6
2019-01-13T07:34:07.641Z,2.3
2019-01-13T07:39:09.788Z,3.6
2019-01-13T07:44:12.130Z,3.6
2019-01-13T07:49:14.451Z,6
2019-01-13T07:54:16.737Z,5.4
2019-01-13T07:59:19.035Z,5
2019-01-13T08:04:21.249Z,5.2
2019-01-13T08:09:23.642Z,3
2019-01-13T08:14:25.936Z,4.4
2019-01-13T08:19:28.249Z,4.7
2019-01-13T08:24:30.558Z,4.4
2019-01-13T08:29:32.846Z,4.8
2019-01-13T08:34:35.148Z,5.2
2019-01-13T08:39:37.364Z,5.3
2019-01-13T08:44:39.678Z,4.6
2019-01-13T08:49:41.946Z,3.7
2019-01-13T08:54:44.370Z,4
2019-01-13T08:59:46.566Z,5.2
2019-01-13T09:04:48.879Z,5.5
2019-01-13T09:09:51.135Z,4.3
2019-01-13T09:14:53.500Z,4.1
2019-01-13T09:19:55.659Z,3.1
2019-01-13T09:24:58.043Z,3.9
2019-01-13T09:30:00.535Z,2.6
2019-01-13T09:35:02.726Z,4.5
2019-01-13T09:40:05.061Z,1
2019-01-13T09:45:07.199Z,1.3
2019-01-13T09:50:09.582Z,4.5
2019-01-13T09:55:11.877Z,2.9
2019-01-13T10:00:14.152Z,3
2019-01-13T10:05:16.393Z,2
2019-01-13T10:10:18.645Z,2.3
2019-01-13T10:15:21.040Z,1.8
2019-01-13T10:20:23.305Z,1.8
2019-01-13T10:25:25.525Z,2.1
2019-01-13T10:30:27.908Z,1.5
2019-01-13T10:35:30.145Z,3.2
2019-01-13T10:40:32.446Z,3.5
2019-01-13T10:45:34.745Z,3.3
2019-01-13T10:50:36.978Z,2.8
2019-01-13T10:55:39.292Z,1.7
2019-01-13T11:00:41.653Z,4.5
2019-01-13T11:05:45.447Z,1.8
2019-01-13T11:10:46.150Z,2.8
2019-01-13T11:15:48.530Z,2.9
2019-01-13T11:20:51.899Z,3.5
2019-01-13T11:25:53.102Z,2.9
2019-01-13T11:30:55.376Z,2.2
2019-01-13T11:35:57.792Z,2.9
2019-01-13T11:40:59.935Z,5.1
2019-01-13T11:46:02.272Z,3.4
2019-01-13T11:51:04.585Z,4.2
2019-01-13T11:56:06.913Z,3
2019-01-13T12:01:09.206Z,4.2
2019-01-13T12:06:11.438Z,4.2
2019-01-13T12:11:13.732Z,4.6
2019-01-13T12:16:15.988Z,5.6
2019-01-13T12:21:18.321Z,8.2
2019-01-13T12:26:20.578Z,5
2019-01-13T12:31:22.943Z,6.6
2019-01-13T12:36:25.203Z,6
2019-01-13T12:41:27.450Z,3.1
2019-01-13T12:46:29.850Z,3.9
2019-01-13T12:51:32.008Z,6.8
2019-01-13T12:56:34.346Z,6.4
2019-01-13T13:01:36.563Z,2.7
2019-01-13T13:06:38.870Z,6.3
2019-01-13T13:11:41.330Z,5.1
2019-01-13T13:16:43.486Z,4.6
2019-01-13T13:21:45.934Z,4.1
2019-01-13T13:26:48.245Z,4.9
2019-01-13T13:31:50.389Z,5.7
2019-01-13T13:36:52.779Z,3.8
2019-01-13T13:41:55.082Z,2.8
2019-01-13T13:46:57.270Z,3.7
2019-01-13T13:51:59.571Z,5.9
2019-01-13T13:57:02.085Z,6.2
2019-01-13T14:02:04.419Z,3.9
2019-01-13T14:07:06.474Z,2.8
2019-01-13T14:12:08.789Z,3.1
2019-01-13T14:17:11.100Z,7
2019-01-13T14:22:13.333Z,3.9
2019-01-13T14:27:15.675Z,3.6
2019-01-13T14:32:18.058Z,2.9
2019-01-13T14:37:20.291Z,4.6
2019-01-13T14:42:22.505Z,2.4
2019-01-13T14:47:24.860Z,3.6
2019-01-13T14:52:27.163Z,3.4
2019-01-13T14:57:29.509Z,4.3
2019-01-13T15:02:31.740Z,4.6
2019-01-13T15:07:33.975Z,4.9
2019-01-13T15:12:36.396Z,4.5
2019-01-13T15:17:38.594Z,2.8
2019-01-13T15:22:40.886Z,2.7
2019-01-13T15:27:43.122Z,2.3
2019-01-13T15:32:45.654Z,3.4
2019-01-13T15:37:49.133Z,2.7
2019-01-13T15:42:50.145Z,2.5
2019-01-13T15:47:52.443Z,4.3
2019-01-13T15:52:54.708Z,2.7
2019-01-13T15:57:56.902Z,2.2
2019-01-13T16:02:59.245Z,5.5
2019-01-13T16:08:01.493Z,1.5
2019-01-13T16:13:03.774Z,3.4
2019-01-13T16:18:06.051Z,1.9
2019-01-13T16:23:08.483Z,2.1
2019-01-13T16:28:10.827Z,2.7
2019-01-13T16:33:13.059Z,1.7
2019-01-13T16:38:15.238Z,2.2
2019-01-13T16:43:17.559Z,1.1
2019-01-13T16:48:19.864Z,2.2
2019-01-13T16:53:22.110Z,2.4
2019-01-13T16:58:24.531Z,1.7
2019-01-13T17:03:26.700Z,2.4
2019-01-13T17:08:28.997Z,2.4
2019-01-13T17:13:31.486Z,4.2
2019-01-13T17:18:33.728Z,3.3
2019-01-13T17:23:35.882Z,2.7
2019-01-13T17:28:38.321Z,4
2019-01-13T17:33:40.671Z,2.5
2019-01-13T17:38:42.875Z,2.6
2019-01-13T17:43:45.231Z,1.5
2019-01-13T17:48:47.710Z,3.2
2019-01-13T17:53:49.732Z,3.9
2019-01-13T17:58:52.005Z,4.1
2019-01-13T18:03:54.276Z,4
2019-01-13T18:08:56.656Z,3.5
2019-01-13T18:13:58.927Z,1.4
2019-01-13T18:19:01.152Z,1.3
2019-01-13T18:24:03.492Z,2.5
2019-01-13T18:29:05.843Z,1.6
2019-01-13T18:34:09.071Z,2.7
2019-01-13T18:39:10.260Z,3.1
2019-01-13T18:44:12.833Z,1.7
2019-01-13T18:49:16.067Z,2.2
2019-01-13T18:54:17.373Z,2
2019-01-13T18:59:19.499Z,1.6
2019-01-13T19:04:21.838Z,0.9
2019-01-13T19:09:24.121Z,1.6
2019-01-13T19:14:26.332Z,1.7
2019-01-13T19:19:28.719Z,1
2019-01-13T19:24:31.297Z,1.5
2019-01-13T19:29:33.310Z,2.3
2019-01-13T19:34:35.714Z,1.5
2019-01-13T19:39:37.842Z,1.5
2019-01-13T19:44:41.550Z,1.5
2019-01-13T19:49:42.421Z,0.7
2019-01-13T19:54:46.508Z,1.4
2019-01-13T19:59:48.636Z,1.6
2019-01-13T20:04:49.342Z,1
2019-01-13T20:09:51.701Z,1.7
2019-01-13T20:14:53.861Z,2.3
2019-01-13T20:19:58.183Z,1.3
2019-01-13T20:24:58.670Z,0.7
2019-01-13T20:30:03.100Z,1.4
2019-01-13T20:35:03.200Z,0.4
2019-01-13T20:40:05.370Z,1
2019-01-13T20:45:07.684Z,1.3
2019-01-13T20:50:10.066Z,1.4
2019-01-13T20:55:12.297Z,2.3
2019-01-13T21:00:14.699Z,1.2
2019-01-13T21:05:17.039Z,1.3
2019-01-13T21:10:19.202Z,1
2019-01-13T21:15:21.475Z,1.1
2019-01-13T21:20:23.950Z,2.6
2019-01-13T21:25:25.999Z,1.8
2019-01-13T21:30:28.380Z,0.5
2019-01-13T21:35:34.172Z,0.5
2019-01-13T21:40:33.036Z,1.8
2019-01-13T21:45:36.519Z,1.8
2019-01-13T21:50:37.473Z,1.5
2019-01-13T21:55:39.876Z,1.1
2019-01-13T22:00:44.531Z,1.1
2019-01-13T22:05:45.568Z,1.7
2019-01-13T22:10:46.791Z,1.9
2019-01-13T22:15:49.038Z,2.3
2019-01-13T22:20:51.323Z,1.6
2019-01-13T22:25:53.541Z,2.6
2019-01-13T22:30:56.028Z,1.8
2019-01-13T22:35:58.176Z,0.8
2019-01-13T22:41:00.462Z,1.1
2019-01-13T22:46:02.881Z,1.5
2019-01-13T22:51:05.094Z,1.7
2019-01-13T22:56:07.352Z,2.1
2019-01-13T23:01:09.649Z,1.6
2019-01-13T23:06:11.988Z,1.6
2019-01-13T23:11:14.192Z,1.6
2019-01-13T23:16:16.469Z,1.8
2019-01-13T23:21:19.880Z,0.9
2019-01-13T23:26:21.065Z,2
2019-01-13T23:31:23.464Z,2.6
2019-01-13T23:36:25.735Z,1.2
2019-01-13T23:41:28.087Z,1.3
2019-01-13T23:46:30.309Z,1.5
2019-01-13T23:51:32.566Z,1.6
2019-01-13T23:56:34.895Z,1
